CYYF

Penticton Airport

Penticton, , Canada
TAF CYYF 261238Z 2613/2701 34008KT P6SM SKC BECMG 2616/2618 36012KT RMK NXT FCST BY 261900Z
Issued Valid From Valid To
Apr-26 @ 12:38 UTC
(58 minutes ago)
Apr-26 @ 13:00 UTC
(36 minutes ago)
Apr-27 @ 01:00 UTC
(in 11 hours)
Apr-26 @ 13:00 to Apr-26 @ 16:00
TAF CYYF 261238Z 2613/2701 34008KT P6SM SKC
Wind Visibility Clouds
340° at 8 knots Greater than 6 miles
  • Clear skies
Becoming Apr-26 @ 16:00 to Apr-27 @ 01:00
BECMG 2616/2618 36012KT RMK NXT FCST BY 261900Z
Wind Visibility Clouds
360° at 12 knots Greater than 6 miles
  • Clear skies
TAF CYYF 261238Z 2613/2701 34008KT P6SM SKC BECMG 2616/2618 36012KT RMK NXT FCST BY 261900Z
Issued Apr-26 @ 12:38 UTC
(58 minutes ago)
Valid From Apr-26 @ 13:00 UTC
(36 minutes ago)
Valid To Apr-27 @ 01:00 UTC
(in 11 hours)
Apr-26 @ 13:00 - Apr-26 @ 16:00
Wind Visibility
340° at 8 knots Greater than 6 miles
Clouds
  • Clear skies
Becoming Apr-26 @ 16:00 - Apr-27 @ 01:00
Wind Visibility
360° at 12 knots Greater than 6 miles
Clouds
  • Clear skies